createdAt,value
2022-12-26T00:02:00.326Z,8.10
2022-12-26T00:04:52.280Z,16.25
2022-12-26T00:07:19.811Z,10.73
2022-12-26T00:09:47.463Z,20.23
2022-12-26T00:12:14.866Z,8.25
2022-12-26T00:14:42.275Z,9.90
2022-12-26T00:17:09.638Z,12.20
2022-12-26T00:19:36.951Z,10.68
2022-12-26T00:22:04.258Z,17.30
2022-12-26T00:24:31.508Z,11.00
2022-12-26T00:26:58.865Z,14.63
2022-12-26T00:29:26.217Z,12.77
2022-12-26T00:31:53.821Z,13.93
2022-12-26T00:34:21.427Z,13.63
2022-12-26T00:36:49.619Z,23.25
2022-12-26T00:39:17.713Z,24.88
2022-12-26T00:41:44.933Z,13.27
2022-12-26T00:44:12.196Z,16.23
2022-12-26T00:46:39.635Z,13.80
2022-12-26T00:49:06.947Z,13.15
2022-12-26T00:51:34.204Z,21.40
2022-12-26T00:54:01.441Z,8.57
2022-12-26T00:56:28.671Z,11.57
2022-12-26T00:58:55.907Z,9.98
2022-12-26T01:01:24.198Z,15.73
2022-12-26T01:03:52.269Z,13.68
2022-12-26T01:06:19.743Z,15.15
2022-12-26T01:08:47.094Z,10.50
2022-12-26T01:11:16.253Z,10.20
2022-12-26T01:13:43.688Z,11.00
2022-12-26T01:16:11.169Z,13.27
2022-12-26T01:18:38.772Z,16.05
2022-12-26T01:21:08.731Z,13.32
2022-12-26T01:23:36.374Z,13.15
2022-12-26T01:26:14.843Z,12.95
2022-12-26T01:28:51.610Z,15.43
2022-12-26T01:31:20.285Z,10.55
2022-12-26T01:33:47.964Z,15.50
2022-12-26T01:36:16.862Z,6.25
2022-12-26T01:38:44.587Z,8.82
2022-12-26T01:41:22.004Z,12.60
2022-12-26T01:43:52.492Z,8.23
2022-12-26T01:46:24.381Z,9.70
2022-12-26T01:48:52.441Z,11.13
2022-12-26T01:51:22.046Z,14.35
2022-12-26T01:53:54.180Z,12.85
2022-12-26T01:56:30.332Z,14.65
2022-12-26T01:59:06.788Z,14.93
2022-12-26T02:01:38.324Z,12.15
2022-12-26T02:04:28.270Z,9.63
2022-12-26T02:06:55.687Z,10.48
2022-12-26T02:09:23.365Z,14.32
2022-12-26T02:12:34.408Z,9.23
2022-12-26T02:14:49.448Z,12.27
2022-12-26T02:17:17.953Z,14.77
2022-12-26T02:20:13.386Z,17.88
2022-12-26T02:25:50.154Z,12.35
2022-12-26T02:28:26.509Z,9.02
2022-12-26T02:31:05.648Z,13.77
2022-12-26T02:33:42.083Z,13.90
2022-12-26T02:36:22.755Z,11.85
2022-12-26T02:39:45.048Z,13.93
2022-12-26T02:42:19.537Z,12.98
2022-12-26T02:45:33.485Z,8.98
2022-12-26T02:48:30.963Z,17.15
2022-12-26T02:51:44.807Z,19.20
2022-12-26T02:54:57.847Z,11.10
2022-12-26T02:58:09.637Z,18.58
2022-12-26T03:00:59.756Z,12.77
2022-12-26T03:03:49.540Z,12.68
2022-12-26T03:06:44.815Z,9.90
2022-12-26T03:12:36.817Z,9.73
2022-12-26T03:15:09.017Z,11.75
2022-12-26T03:17:42.190Z,11.98
2022-12-26T03:20:24.441Z,12.20
2022-12-26T03:23:03.229Z,15.57
2022-12-26T03:25:59.118Z,12.00
2022-12-26T03:28:27.164Z,9.57
2022-12-26T03:30:56.814Z,14.88
2022-12-26T03:33:42.593Z,9.73
2022-12-26T03:36:17.429Z,10.05
2022-12-26T03:39:14.080Z,10.88
2022-12-26T03:42:20.720Z,20.85
2022-12-26T03:45:42.846Z,11.52
2022-12-26T03:48:52.751Z,7.50
2022-12-26T03:52:09.832Z,9.23
2022-12-26T03:55:18.300Z,5.80
2022-12-26T03:58:25.317Z,5.57
2022-12-26T04:01:19.760Z,8.85
2022-12-26T04:04:34.047Z,4.50
2022-12-26T04:07:36.467Z,6.40
2022-12-26T04:10:51.081Z,5.70
2022-12-26T04:14:07.321Z,5.82
2022-12-26T04:16:59.088Z,2.05
2022-12-26T04:19:49.439Z,10.48
2022-12-26T04:22:44.197Z,2.13
2022-12-26T04:25:49.940Z,3.28
2022-12-26T04:28:40.227Z,1.05
2022-12-26T04:31:32.292Z,3.65
2022-12-26T04:34:23.551Z,3.03
2022-12-26T04:37:17.332Z,3.65
2022-12-26T04:40:09.980Z,1.85
2022-12-26T04:42:58.193Z,1.58
2022-12-26T04:45:26.802Z,3.45
2022-12-26T04:48:12.613Z,2.00
2022-12-26T04:50:52.954Z,2.28
2022-12-26T04:53:20.910Z,2.47
2022-12-26T04:55:48.587Z,8.55
2022-12-26T04:58:15.934Z,0.93
2022-12-26T05:00:44.268Z,3.25
2022-12-26T05:03:33.054Z,4.68
2022-12-26T05:06:19.299Z,2.38
2022-12-26T05:09:06.128Z,3.90
2022-12-26T05:11:35.475Z,3.60
2022-12-26T05:14:02.837Z,4.72
2022-12-26T05:16:48.860Z,4.47
2022-12-26T05:19:35.981Z,5.20
2022-12-26T05:22:28.307Z,2.67
2022-12-26T05:25:13.953Z,2.78
2022-12-26T05:28:03.672Z,6.00
2022-12-26T05:30:30.999Z,0.93
2022-12-26T05:33:16.801Z,4.10
2022-12-26T05:35:44.170Z,1.73
2022-12-26T05:38:11.936Z,0.40
2022-12-26T05:40:39.228Z,1.05
2022-12-26T05:43:06.584Z,5.60
2022-12-26T05:45:33.815Z,0.65
2022-12-26T05:48:02.352Z,0.52
2022-12-26T05:50:29.662Z,0.73
2022-12-26T05:52:58.284Z,0.10
2022-12-26T05:55:25.900Z,0.20
2022-12-26T05:57:53.118Z,1.10
2022-12-26T06:00:20.397Z,2.97
2022-12-26T06:02:47.834Z,2.70
2022-12-26T06:05:15.187Z,1.45
2022-12-26T06:07:42.667Z,1.40
2022-12-26T06:10:10.845Z,0.75
2022-12-26T06:12:38.188Z,2.70
2022-12-26T06:15:05.852Z,3.53
2022-12-26T06:17:33.097Z,1.83
2022-12-26T06:20:00.551Z,0.10
2022-12-26T06:22:31.671Z,4.47
2022-12-26T06:24:59.002Z,1.38
2022-12-26T06:27:26.251Z,2.03
2022-12-26T06:29:53.635Z,1.50
2022-12-26T06:32:21.481Z,1.90
2022-12-26T06:34:48.945Z,0.50
2022-12-26T06:37:16.998Z,1.95
2022-12-26T06:39:44.253Z,1.45
2022-12-26T06:42:11.493Z,1.33
2022-12-26T06:44:38.802Z,0.20
2022-12-26T06:47:06.254Z,1.90
2022-12-26T06:49:33.579Z,0.70
2022-12-26T06:52:00.820Z,4.00
2022-12-26T06:54:28.067Z,3.13
2022-12-26T06:56:55.302Z,3.65
2022-12-26T06:59:22.607Z,3.70
2022-12-26T07:01:50.070Z,5.75
2022-12-26T07:04:17.593Z,1.25
2022-12-26T07:06:44.888Z,1.90
2022-12-26T07:09:17.009Z,5.20
2022-12-26T07:11:46.983Z,5.03
2022-12-26T07:14:15.322Z,0.40
2022-12-26T07:16:44.747Z,5.65
2022-12-26T07:19:14.359Z,0.70
2022-12-26T07:21:42.290Z,1.75
2022-12-26T07:24:17.703Z,0.28
2022-12-26T07:26:45.763Z,1.00
2022-12-26T07:29:13.690Z,3.42
2022-12-26T07:31:42.007Z,2.47
2022-12-26T07:34:09.476Z,2.25
2022-12-26T07:36:36.821Z,2.65
2022-12-26T07:39:04.330Z,2.83
2022-12-26T07:41:50.029Z,1.52
2022-12-26T07:44:17.301Z,4.45
2022-12-26T07:46:46.707Z,2.28
2022-12-26T07:49:14.187Z,3.85
2022-12-26T07:51:42.663Z,4.13
2022-12-26T07:54:11.649Z,6.03
2022-12-26T07:56:40.379Z,6.32
2022-12-26T07:59:12.494Z,4.18
2022-12-26T08:01:39.899Z,4.40
2022-12-26T08:04:07.327Z,1.38
2022-12-26T08:06:34.917Z,2.83
2022-12-26T08:09:02.176Z,3.15
2022-12-26T08:11:33.390Z,3.65
2022-12-26T08:14:01.070Z,5.78
2022-12-26T08:16:28.665Z,3.90
2022-12-26T08:18:55.892Z,4.38
2022-12-26T08:21:23.227Z,1.30
2022-12-26T08:23:50.644Z,3.90
2022-12-26T08:29:10.787Z,3.35
2022-12-26T08:31:38.899Z,5.63
2022-12-26T08:34:06.323Z,9.05
2022-12-26T08:36:33.596Z,1.63
2022-12-26T08:39:00.896Z,3.25
2022-12-26T08:41:28.176Z,7.07
2022-12-26T08:46:42.799Z,1.00
2022-12-26T08:49:10.300Z,2.17
2022-12-26T08:51:37.691Z,2.67
2022-12-26T08:54:06.091Z,3.42
2022-12-26T08:56:33.423Z,1.30
2022-12-26T08:59:00.748Z,2.85
2022-12-26T09:01:30.109Z,7.32
2022-12-26T09:04:02.645Z,1.63
2022-12-26T09:06:32.841Z,6.05
2022-12-26T09:09:00.865Z,4.53
2022-12-26T09:11:29.080Z,1.25
2022-12-26T09:13:59.520Z,4.03
2022-12-26T09:16:34.076Z,1.58
2022-12-26T09:19:05.984Z,1.45
2022-12-26T09:21:33.692Z,6.22
2022-12-26T09:24:04.474Z,0.73
2022-12-26T09:26:32.806Z,10.35
2022-12-26T09:29:00.503Z,5.32
2022-12-26T09:31:33.402Z,4.47
2022-12-26T09:34:07.001Z,11.90
2022-12-26T09:36:39.965Z,3.58
2022-12-26T09:39:08.519Z,7.10
2022-12-26T09:41:38.771Z,5.13
2022-12-26T09:44:18.222Z,1.30
2022-12-26T09:47:04.404Z,7.63
2022-12-26T09:49:36.904Z,3.10
2022-12-26T09:52:16.876Z,4.07
2022-12-26T09:54:56.642Z,7.72
2022-12-26T09:57:34.569Z,2.75
2022-12-26T10:00:05.179Z,3.70
2022-12-26T10:02:39.796Z,3.03
2022-12-26T10:05:07.499Z,2.75
2022-12-26T10:07:44.234Z,5.20
2022-12-26T10:10:14.336Z,3.40
2022-12-26T10:13:12.171Z,2.42
2022-12-26T10:16:06.070Z,0.45
2022-12-26T10:18:55.068Z,3.45
2022-12-26T10:21:39.373Z,0.63
2022-12-26T10:24:16.977Z,3.35
2022-12-26T10:26:50.482Z,5.53
2022-12-26T10:29:42.572Z,0.82
2022-12-26T10:32:27.552Z,1.27
2022-12-26T10:34:55.285Z,4.78
2022-12-26T10:37:33.123Z,4.95
2022-12-26T10:40:05.613Z,1.02
2022-12-26T10:42:48.266Z,3.50
2022-12-26T10:45:36.581Z,2.85
2022-12-26T10:48:04.467Z,1.88
2022-12-26T10:50:34.997Z,2.83
2022-12-26T10:53:07.621Z,6.72
2022-12-26T10:55:35.865Z,3.97
2022-12-26T10:58:14.733Z,3.55
2022-12-26T11:00:42.106Z,6.22
2022-12-26T11:03:14.071Z,5.47
2022-12-26T11:06:07.388Z,4.65
2022-12-26T11:08:47.576Z,2.47
2022-12-26T11:11:25.542Z,5.95
2022-12-26T11:14:02.204Z,9.43
2022-12-26T11:16:35.629Z,4.47
2022-12-26T11:19:03.947Z,11.75
2022-12-26T11:21:32.895Z,3.58
2022-12-26T11:24:09.323Z,9.75
2022-12-26T11:26:38.321Z,6.65
2022-12-26T11:29:10.529Z,5.47
2022-12-26T11:31:39.436Z,11.05
2022-12-26T11:34:16.000Z,6.28
2022-12-26T11:36:48.554Z,4.78
2022-12-26T11:39:24.319Z,11.93
2022-12-26T11:41:52.356Z,3.67
2022-12-26T11:44:21.955Z,7.72
2022-12-26T11:47:09.277Z,5.00
2022-12-26T11:50:05.780Z,6.15
2022-12-26T11:53:04.510Z,11.23
2022-12-26T11:55:35.256Z,6.65
2022-12-26T11:58:08.506Z,10.32
2022-12-26T12:00:38.769Z,3.17
2022-12-26T12:03:32.627Z,6.22
2022-12-26T12:06:19.239Z,5.32
2022-12-26T12:09:20.557Z,2.38
2022-12-26T12:12:22.666Z,7.93
2022-12-26T12:15:28.997Z,6.50
2022-12-26T12:18:16.224Z,5.97
2022-12-26T12:21:14.376Z,5.00
2022-12-26T12:23:56.618Z,4.43
2022-12-26T12:26:38.847Z,6.43
2022-12-26T12:29:25.450Z,4.65
2022-12-26T12:32:14.391Z,7.60
2022-12-26T12:35:03.130Z,5.97
2022-12-26T12:37:36.547Z,5.05
2022-12-26T12:40:49.525Z,6.50
2022-12-26T12:43:38.125Z,3.42
2022-12-26T12:46:51.071Z,9.52
2022-12-26T12:49:30.239Z,6.72
2022-12-26T12:52:29.185Z,8.02
2022-12-26T12:54:59.455Z,8.23
2022-12-26T12:57:48.892Z,2.95
2022-12-26T13:00:55.179Z,8.27
2022-12-26T13:04:01.868Z,8.65
2022-12-26T13:06:39.685Z,7.40
2022-12-26T13:09:33.905Z,4.13
2022-12-26T13:12:08.523Z,7.63
2022-12-26T13:14:43.732Z,5.25
2022-12-26T13:17:20.697Z,2.63
2022-12-26T13:20:03.046Z,5.88
2022-12-26T13:22:56.786Z,8.13
2022-12-26T13:25:28.246Z,7.18
2022-12-26T13:28:09.583Z,8.23
2022-12-26T13:30:38.229Z,4.97
2022-12-26T13:33:06.553Z,4.57
2022-12-26T13:36:02.477Z,2.33
2022-12-26T13:39:07.895Z,6.50
2022-12-26T13:41:54.441Z,8.30
2022-12-26T13:44:21.713Z,3.22
2022-12-26T13:46:48.864Z,4.30
2022-12-26T13:49:37.198Z,6.78
2022-12-26T13:52:19.461Z,4.35
2022-12-26T13:54:52.512Z,4.75
2022-12-26T13:57:48.322Z,7.30
2022-12-26T14:00:46.128Z,4.50
2022-12-26T14:03:23.697Z,6.10
2022-12-26T14:06:18.736Z,5.10
2022-12-26T14:09:11.150Z,6.68
2022-12-26T14:12:05.736Z,4.82
2022-12-26T14:15:03.709Z,6.85
2022-12-26T14:17:49.072Z,3.28
2022-12-26T14:20:48.545Z,6.97
2022-12-26T14:23:29.885Z,9.38
2022-12-26T14:26:07.962Z,8.90
2022-12-26T14:28:53.825Z,3.67
2022-12-26T14:31:39.205Z,8.95
2022-12-26T14:34:10.713Z,6.65
2022-12-26T14:36:58.810Z,7.30
2022-12-26T14:39:38.786Z,5.20
2022-12-26T14:42:27.430Z,5.60
2022-12-26T14:44:57.389Z,3.88
2022-12-26T14:47:46.726Z,7.53
2022-12-26T14:50:32.495Z,3.97
2022-12-26T14:53:24.504Z,9.93
2022-12-26T14:56:08.308Z,6.13
2022-12-26T14:58:40.788Z,8.32
2022-12-26T15:01:14.221Z,6.57
2022-12-26T15:03:50.550Z,8.33
2022-12-26T15:06:20.586Z,5.15
2022-12-26T15:09:06.451Z,11.02
2022-12-26T15:12:02.619Z,13.18
2022-12-26T15:14:57.136Z,5.55
2022-12-26T15:17:45.485Z,9.10
2022-12-26T15:20:21.770Z,8.90
2022-12-26T15:22:52.045Z,11.95
2022-12-26T15:25:53.155Z,3.97
2022-12-26T15:28:53.838Z,1.42
2022-12-26T15:31:42.887Z,2.30
2022-12-26T15:34:25.087Z,6.72
2022-12-26T15:37:02.494Z,4.32
2022-12-26T15:39:48.513Z,3.72
2022-12-26T15:42:34.350Z,4.35
2022-12-26T15:45:07.656Z,5.97
2022-12-26T15:47:58.796Z,5.03
2022-12-26T15:50:32.047Z,2.30
2022-12-26T15:53:16.531Z,5.80
2022-12-26T15:55:55.556Z,2.40
2022-12-26T15:58:52.857Z,4.50
2022-12-26T16:01:39.478Z,2.80
2022-12-26T16:04:15.652Z,7.38
2022-12-26T16:07:08.338Z,8.35
2022-12-26T16:09:41.401Z,6.35
2022-12-26T16:12:27.299Z,4.85
2022-12-26T16:15:09.795Z,8.18
2022-12-26T16:17:38.967Z,3.53
2022-12-26T16:20:51.755Z,7.32
2022-12-26T16:23:22.548Z,3.13
2022-12-26T16:25:52.566Z,5.40
2022-12-26T16:28:26.121Z,4.03
2022-12-26T16:30:53.511Z,4.00
2022-12-26T16:33:20.796Z,3.85
2022-12-26T16:35:48.146Z,5.65
2022-12-26T16:38:19.799Z,6.93
2022-12-26T16:40:49.866Z,6.40
2022-12-26T16:43:27.696Z,9.00
2022-12-26T16:46:00.254Z,4.60
2022-12-26T16:48:31.233Z,5.30
2022-12-26T16:51:01.854Z,3.08
2022-12-26T16:53:35.225Z,14.35
2022-12-26T16:56:34.235Z,6.22
2022-12-26T16:59:17.020Z,9.80
2022-12-26T17:01:54.692Z,6.60
2022-12-26T17:04:25.129Z,1.85
2022-12-26T17:07:00.442Z,3.35
2022-12-26T17:09:32.066Z,6.80
2022-12-26T17:12:08.601Z,5.45
2022-12-26T17:14:38.938Z,1.30
2022-12-26T17:17:28.925Z,5.15
2022-12-26T17:19:58.925Z,4.45
2022-12-26T17:22:36.859Z,6.93
2022-12-26T17:25:33.648Z,5.05
2022-12-26T17:28:15.126Z,4.45
2022-12-26T17:30:46.990Z,3.25
2022-12-26T17:33:14.182Z,5.18
2022-12-26T17:36:38.239Z,3.00
2022-12-26T17:38:30.669Z,6.88
2022-12-26T17:41:02.773Z,3.03
2022-12-26T17:43:36.140Z,5.97
2022-12-26T17:46:04.730Z,6.85
2022-12-26T17:48:32.234Z,4.03
2022-12-26T17:51:02.141Z,2.50
2022-12-26T17:53:32.414Z,4.72
2022-12-26T17:56:08.329Z,4.53
2022-12-26T17:58:35.561Z,7.90
2022-12-26T18:01:03.345Z,5.47
2022-12-26T18:03:30.857Z,5.53
2022-12-26T18:05:58.092Z,5.00
2022-12-26T18:08:34.286Z,3.72
2022-12-26T18:11:04.365Z,5.88
2022-12-26T18:13:32.163Z,17.83
2022-12-26T18:15:59.767Z,8.68
2022-12-26T18:18:40.916Z,5.53
2022-12-26T18:21:11.276Z,4.50
2022-12-26T18:23:39.423Z,8.90
2022-12-26T18:26:13.049Z,17.55
2022-12-26T18:28:41.175Z,8.63
2022-12-26T18:31:09.450Z,6.45
2022-12-26T18:33:36.732Z,8.68
2022-12-26T18:36:07.617Z,3.65
2022-12-26T18:38:35.227Z,5.90
2022-12-26T18:41:02.551Z,9.48
2022-12-26T18:43:29.790Z,7.40
2022-12-26T18:45:58.467Z,2.20
2022-12-26T18:48:25.755Z,3.10
2022-12-26T18:50:53.033Z,5.28
2022-12-26T18:53:20.290Z,10.30
2022-12-26T18:55:47.506Z,5.85
2022-12-26T18:58:14.786Z,7.82
2022-12-26T19:00:42.071Z,4.05
2022-12-26T19:03:09.325Z,5.53
2022-12-26T19:05:36.682Z,8.88
2022-12-26T19:08:04.007Z,6.95
2022-12-26T19:10:33.255Z,3.65
2022-12-26T19:13:05.888Z,2.55
2022-12-26T19:15:36.951Z,5.18
2022-12-26T19:18:05.328Z,4.97
2022-12-26T19:20:32.810Z,5.72
2022-12-26T19:23:00.147Z,8.98
2022-12-26T19:25:27.635Z,5.68
2022-12-26T19:27:55.394Z,7.88
2022-12-26T19:30:23.077Z,10.32
2022-12-26T19:32:50.602Z,4.43
2022-12-26T19:35:18.815Z,2.90
2022-12-26T19:37:46.140Z,4.80
2022-12-26T19:40:18.355Z,5.95
2022-12-26T19:42:48.721Z,4.85
2022-12-26T19:45:16.164Z,11.30
2022-12-26T19:47:43.335Z,4.38
2022-12-26T19:50:11.656Z,4.35
2022-12-26T19:52:39.584Z,3.50
2022-12-26T19:55:08.788Z,5.05
2022-12-26T19:57:36.062Z,11.35
2022-12-26T20:00:04.623Z,3.83
2022-12-26T20:02:39.653Z,5.03
2022-12-26T20:05:08.144Z,4.80
2022-12-26T20:07:35.508Z,5.50
2022-12-26T20:10:03.223Z,4.57
2022-12-26T20:12:30.506Z,8.18
2022-12-26T20:14:57.684Z,9.25
2022-12-26T20:17:25.173Z,6.68
2022-12-26T20:19:52.489Z,5.28
2022-12-26T20:22:19.703Z,3.25
2022-12-26T20:24:47.390Z,4.43
2022-12-26T20:27:15.130Z,3.67
2022-12-26T20:29:42.359Z,9.18
2022-12-26T20:32:09.677Z,2.30
2022-12-26T20:34:37.137Z,6.90
2022-12-26T20:37:04.595Z,4.70
2022-12-26T20:39:32.157Z,6.03
2022-12-26T20:41:59.635Z,4.00
2022-12-26T20:44:26.863Z,4.93
2022-12-26T20:46:54.137Z,3.03
2022-12-26T20:49:21.365Z,6.82
2022-12-26T20:51:48.611Z,5.38
2022-12-26T20:54:17.624Z,6.88
2022-12-26T20:56:45.158Z,4.68
2022-12-26T20:59:12.948Z,8.48
2022-12-26T21:01:40.625Z,6.85
2022-12-26T21:04:08.827Z,5.10
2022-12-26T21:06:37.939Z,5.68
2022-12-26T21:09:06.729Z,2.97
2022-12-26T21:11:39.272Z,6.18
2022-12-26T21:14:10.424Z,7.00
2022-12-26T21:16:42.005Z,14.68
2022-12-26T21:19:14.987Z,6.82
2022-12-26T21:21:46.135Z,2.55
2022-12-26T21:24:19.902Z,9.85
2022-12-26T21:26:48.242Z,4.90
2022-12-26T21:29:21.726Z,8.15
2022-12-26T21:31:49.796Z,6.90
2022-12-26T21:34:19.653Z,6.80
2022-12-26T21:37:05.797Z,8.85
2022-12-26T21:39:34.610Z,7.32
2022-12-26T21:42:02.744Z,9.48
2022-12-26T21:44:29.971Z,10.50
2022-12-26T21:46:57.251Z,6.60
2022-12-26T21:49:24.971Z,5.38
2022-12-26T21:51:52.148Z,1.77
2022-12-26T21:54:41.057Z,7.90
2022-12-26T21:57:13.833Z,2.92
2022-12-26T21:59:59.698Z,6.80
2022-12-26T22:02:51.031Z,4.45
2022-12-26T22:05:20.330Z,2.75
2022-12-26T22:07:51.571Z,5.82
2022-12-26T22:10:37.517Z,9.95
2022-12-26T22:13:05.759Z,3.00
2022-12-26T22:15:51.769Z,7.10
2022-12-26T22:18:19.465Z,3.78
2022-12-26T22:20:46.685Z,6.30
2022-12-26T22:23:14.177Z,4.50
2022-12-26T22:25:41.346Z,1.17
2022-12-26T22:28:08.611Z,4.22
2022-12-26T22:30:35.825Z,7.45
2022-12-26T22:33:03.074Z,5.07
2022-12-26T22:35:30.327Z,7.47
2022-12-26T22:37:57.471Z,10.40
2022-12-26T22:40:24.663Z,3.63
2022-12-26T22:42:51.879Z,5.72
2022-12-26T22:45:19.118Z,8.52
2022-12-26T22:47:46.317Z,3.13
2022-12-26T22:50:16.826Z,6.18
2022-12-26T22:52:44.579Z,8.13
2022-12-26T22:55:12.460Z,2.58
2022-12-26T22:57:39.841Z,4.80
2022-12-26T23:00:11.246Z,3.25
2022-12-26T23:02:38.732Z,3.30
2022-12-26T23:05:06.795Z,1.63
2022-12-26T23:07:34.298Z,3.60
2022-12-26T23:10:01.793Z,5.78
2022-12-26T23:12:44.678Z,3.60
2022-12-26T23:15:23.021Z,2.55
2022-12-26T23:18:32.859Z,3.42
2022-12-26T23:21:28.216Z,4.70
2022-12-26T23:23:55.461Z,5.00
2022-12-26T23:26:22.698Z,6.45
2022-12-26T23:29:08.230Z,1.73
2022-12-26T23:31:35.427Z,5.35
2022-12-26T23:34:02.880Z,5.85
2022-12-26T23:36:30.086Z,8.90
2022-12-26T23:38:57.512Z,3.45
2022-12-26T23:41:24.765Z,5.07
2022-12-26T23:43:52.017Z,2.80
2022-12-26T23:46:19.348Z,2.58
2022-12-26T23:48:46.669Z,3.13
2022-12-26T23:51:13.925Z,4.30
2022-12-26T23:53:41.394Z,5.18
2022-12-26T23:56:09.609Z,6.22
2022-12-26T23:58:40.122Z,1.90
